sensor_id;sensor_type;location;lat;lon;timestamp;P1;durP1;ratioP1;P2;durP2;ratioP2
66485;SDS011;53303;47.476;8.084;2023-07-02T00:02:20;4.95;;;1.90;;
66485;SDS011;53303;47.476;8.084;2023-07-02T00:04:46;6.78;;;1.85;;
66485;SDS011;53303;47.476;8.084;2023-07-02T00:07:14;4.72;;;1.60;;
66485;SDS011;53303;47.476;8.084;2023-07-02T00:09:40;4.53;;;2.03;;
66485;SDS011;53303;47.476;8.084;2023-07-02T00:12:05;5.72;;;2.38;;
66485;SDS011;53303;47.476;8.084;2023-07-02T00:14:31;5.07;;;1.90;;
66485;SDS011;53303;47.476;8.084;2023-07-02T00:16:57;5.47;;;2.30;;
66485;SDS011;53303;47.476;8.084;2023-07-02T00:19:23;6.00;;;2.25;;
66485;SDS011;53303;47.476;8.084;2023-07-02T00:21:48;5.57;;;2.13;;
66485;SDS011;53303;47.476;8.084;2023-07-02T00:24:14;4.43;;;2.08;;
66485;SDS011;53303;47.476;8.084;2023-07-02T00:26:41;4.03;;;1.90;;
66485;SDS011;53303;47.476;8.084;2023-07-02T00:29:09;5.85;;;2.00;;
66485;SDS011;53303;47.476;8.084;2023-07-02T00:31:35;5.45;;;2.13;;
66485;SDS011;53303;47.476;8.084;2023-07-02T00:34:01;6.28;;;1.92;;
66485;SDS011;53303;47.476;8.084;2023-07-02T00:36:27;4.97;;;2.28;;
66485;SDS011;53303;47.476;8.084;2023-07-02T00:38:56;6.00;;;2.28;;
66485;SDS011;53303;47.476;8.084;2023-07-02T00:41:23;4.95;;;2.20;;
66485;SDS011;53303;47.476;8.084;2023-07-02T00:43:49;6.30;;;1.95;;
66485;SDS011;53303;47.476;8.084;2023-07-02T00:46:15;7.00;;;2.08;;
66485;SDS011;53303;47.476;8.084;2023-07-02T00:48:46;6.35;;;2.50;;
66485;SDS011;53303;47.476;8.084;2023-07-02T00:51:16;5.53;;;2.20;;
66485;SDS011;53303;47.476;8.084;2023-07-02T00:53:46;6.05;;;2.60;;
66485;SDS011;53303;47.476;8.084;2023-07-02T00:56:13;5.70;;;2.20;;
66485;SDS011;53303;47.476;8.084;2023-07-02T00:58:43;5.32;;;2.40;;
66485;SDS011;53303;47.476;8.084;2023-07-02T01:01:14;5.93;;;2.95;;
66485;SDS011;53303;47.476;8.084;2023-07-02T01:06:19;6.25;;;2.92;;
66485;SDS011;53303;47.476;8.084;2023-07-02T01:08:50;6.80;;;2.40;;
66485;SDS011;53303;47.476;8.084;2023-07-02T01:11:17;6.50;;;2.40;;
66485;SDS011;53303;47.476;8.084;2023-07-02T01:13:45;6.60;;;2.95;;
66485;SDS011;53303;47.476;8.084;2023-07-02T01:16:11;8.52;;;2.55;;
66485;SDS011;53303;47.476;8.084;2023-07-02T01:18:36;6.28;;;2.40;;
66485;SDS011;53303;47.476;8.084;2023-07-02T01:21:05;5.55;;;2.33;;
66485;SDS011;53303;47.476;8.084;2023-07-02T01:23:33;9.88;;;3.03;;
66485;SDS011;53303;47.476;8.084;2023-07-02T01:25:59;10.70;;;2.75;;
66485;SDS011;53303;47.476;8.084;2023-07-02T01:28:33;8.68;;;2.60;;
66485;SDS011;53303;47.476;8.084;2023-07-02T01:31:00;7.93;;;3.00;;
66485;SDS011;53303;47.476;8.084;2023-07-02T01:33:26;7.25;;;2.80;;
66485;SDS011;53303;47.476;8.084;2023-07-02T01:35:51;7.75;;;3.13;;
66485;SDS011;53303;47.476;8.084;2023-07-02T01:38:16;8.30;;;3.00;;
66485;SDS011;53303;47.476;8.084;2023-07-02T01:40:42;8.15;;;3.05;;
66485;SDS011;53303;47.476;8.084;2023-07-02T01:43:08;7.53;;;3.03;;
66485;SDS011;53303;47.476;8.084;2023-07-02T01:45:33;8.65;;;3.08;;
66485;SDS011;53303;47.476;8.084;2023-07-02T01:47:58;8.10;;;2.88;;
66485;SDS011;53303;47.476;8.084;2023-07-02T01:50:24;9.07;;;3.45;;
66485;SDS011;53303;47.476;8.084;2023-07-02T01:52:49;8.68;;;3.00;;
66485;SDS011;53303;47.476;8.084;2023-07-02T01:55:15;6.53;;;2.67;;
66485;SDS011;53303;47.476;8.084;2023-07-02T01:57:42;8.30;;;2.80;;
66485;SDS011;53303;47.476;8.084;2023-07-02T02:00:08;7.90;;;2.95;;
66485;SDS011;53303;47.476;8.084;2023-07-02T02:02:34;8.60;;;2.70;;
66485;SDS011;53303;47.476;8.084;2023-07-02T02:04:59;8.43;;;3.17;;
66485;SDS011;53303;47.476;8.084;2023-07-02T02:07:25;11.23;;;2.92;;
66485;SDS011;53303;47.476;8.084;2023-07-02T02:09:50;8.15;;;2.70;;
66485;SDS011;53303;47.476;8.084;2023-07-02T02:12:16;9.90;;;2.83;;
66485;SDS011;53303;47.476;8.084;2023-07-02T02:14:41;9.60;;;2.78;;
66485;SDS011;53303;47.476;8.084;2023-07-02T02:17:07;8.75;;;3.20;;
66485;SDS011;53303;47.476;8.084;2023-07-02T02:19:32;7.57;;;3.00;;
66485;SDS011;53303;47.476;8.084;2023-07-02T02:21:58;7.85;;;3.05;;
66485;SDS011;53303;47.476;8.084;2023-07-02T02:24:24;5.65;;;2.40;;
66485;SDS011;53303;47.476;8.084;2023-07-02T02:26:49;9.15;;;2.72;;
66485;SDS011;53303;47.476;8.084;2023-07-02T02:29:14;8.93;;;2.83;;
66485;SDS011;53303;47.476;8.084;2023-07-02T02:31:40;9.18;;;3.22;;
66485;SDS011;53303;47.476;8.084;2023-07-02T02:34:05;10.30;;;3.75;;
66485;SDS011;53303;47.476;8.084;2023-07-02T02:36:31;10.65;;;3.30;;
66485;SDS011;53303;47.476;8.084;2023-07-02T02:38:57;8.10;;;3.03;;
66485;SDS011;53303;47.476;8.084;2023-07-02T02:41:22;8.10;;;3.50;;
66485;SDS011;53303;47.476;8.084;2023-07-02T02:43:48;9.07;;;3.03;;
66485;SDS011;53303;47.476;8.084;2023-07-02T02:46:19;9.13;;;3.63;;
66485;SDS011;53303;47.476;8.084;2023-07-02T02:48:48;9.85;;;3.13;;
66485;SDS011;53303;47.476;8.084;2023-07-02T02:51:13;7.95;;;3.13;;
66485;SDS011;53303;47.476;8.084;2023-07-02T02:53:39;8.55;;;3.35;;
66485;SDS011;53303;47.476;8.084;2023-07-02T02:56:09;11.57;;;3.50;;
66485;SDS011;53303;47.476;8.084;2023-07-02T02:58:34;10.52;;;3.03;;
66485;SDS011;53303;47.476;8.084;2023-07-02T03:01:00;10.57;;;3.80;;
66485;SDS011;53303;47.476;8.084;2023-07-02T03:03:25;7.95;;;2.97;;
66485;SDS011;53303;47.476;8.084;2023-07-02T03:05:51;8.55;;;3.15;;
66485;SDS011;53303;47.476;8.084;2023-07-02T03:08:16;9.00;;;3.05;;
66485;SDS011;53303;47.476;8.084;2023-07-02T03:10:41;9.13;;;3.40;;
66485;SDS011;53303;47.476;8.084;2023-07-02T03:13:07;13.82;;;3.30;;
66485;SDS011;53303;47.476;8.084;2023-07-02T03:15:32;8.48;;;3.10;;
66485;SDS011;53303;47.476;8.084;2023-07-02T03:18:00;11.60;;;3.20;;
66485;SDS011;53303;47.476;8.084;2023-07-02T03:20:25;9.80;;;3.67;;
66485;SDS011;53303;47.476;8.084;2023-07-02T03:22:51;12.77;;;3.58;;
66485;SDS011;53303;47.476;8.084;2023-07-02T03:25:18;7.85;;;3.50;;
66485;SDS011;53303;47.476;8.084;2023-07-02T03:27:44;7.43;;;3.50;;
66485;SDS011;53303;47.476;8.084;2023-07-02T03:30:09;9.32;;;2.88;;
66485;SDS011;53303;47.476;8.084;2023-07-02T03:32:35;8.38;;;3.60;;
66485;SDS011;53303;47.476;8.084;2023-07-02T03:35:00;11.65;;;3.78;;
66485;SDS011;53303;47.476;8.084;2023-07-02T03:37:26;7.28;;;3.40;;
66485;SDS011;53303;47.476;8.084;2023-07-02T03:39:51;7.65;;;3.03;;
66485;SDS011;53303;47.476;8.084;2023-07-02T03:42:17;12.85;;;3.15;;
66485;SDS011;53303;47.476;8.084;2023-07-02T03:44:42;10.48;;;3.88;;
66485;SDS011;53303;47.476;8.084;2023-07-02T03:47:07;11.02;;;3.80;;
66485;SDS011;53303;47.476;8.084;2023-07-02T03:49:37;10.82;;;3.65;;
66485;SDS011;53303;47.476;8.084;2023-07-02T03:52:02;9.23;;;3.60;;
66485;SDS011;53303;47.476;8.084;2023-07-02T03:54:28;11.80;;;3.45;;
66485;SDS011;53303;47.476;8.084;2023-07-02T03:56:56;11.75;;;3.72;;
66485;SDS011;53303;47.476;8.084;2023-07-02T03:59:21;13.65;;;4.38;;
66485;SDS011;53303;47.476;8.084;2023-07-02T04:01:47;8.25;;;3.28;;
66485;SDS011;53303;47.476;8.084;2023-07-02T04:04:13;8.93;;;3.50;;
66485;SDS011;53303;47.476;8.084;2023-07-02T04:06:38;8.82;;;3.42;;
66485;SDS011;53303;47.476;8.084;2023-07-02T04:09:06;10.60;;;3.45;;
66485;SDS011;53303;47.476;8.084;2023-07-02T04:11:32;9.15;;;3.88;;
66485;SDS011;53303;47.476;8.084;2023-07-02T04:13:57;9.75;;;3.47;;
66485;SDS011;53303;47.476;8.084;2023-07-02T04:16:23;11.05;;;3.90;;
66485;SDS011;53303;47.476;8.084;2023-07-02T04:18:48;8.20;;;3.50;;
66485;SDS011;53303;47.476;8.084;2023-07-02T04:21:13;10.88;;;4.07;;
66485;SDS011;53303;47.476;8.084;2023-07-02T04:23:39;10.05;;;3.58;;
66485;SDS011;53303;47.476;8.084;2023-07-02T04:26:04;8.68;;;4.00;;
66485;SDS011;53303;47.476;8.084;2023-07-02T04:28:31;9.60;;;4.32;;
66485;SDS011;53303;47.476;8.084;2023-07-02T04:30:56;8.88;;;3.90;;
66485;SDS011;53303;47.476;8.084;2023-07-02T04:33:22;7.70;;;3.65;;
66485;SDS011;53303;47.476;8.084;2023-07-02T04:35:47;7.88;;;4.07;;
66485;SDS011;53303;47.476;8.084;2023-07-02T04:38:12;9.75;;;3.75;;
66485;SDS011;53303;47.476;8.084;2023-07-02T04:40:38;11.18;;;3.80;;
66485;SDS011;53303;47.476;8.084;2023-07-02T04:43:04;11.43;;;3.88;;
66485;SDS011;53303;47.476;8.084;2023-07-02T04:45:30;10.13;;;4.55;;
66485;SDS011;53303;47.476;8.084;2023-07-02T04:48:01;11.00;;;4.60;;
66485;SDS011;53303;47.476;8.084;2023-07-02T04:50:27;12.80;;;4.60;;
66485;SDS011;53303;47.476;8.084;2023-07-02T04:52:53;11.65;;;4.13;;
66485;SDS011;53303;47.476;8.084;2023-07-02T04:55:18;9.93;;;5.03;;
66485;SDS011;53303;47.476;8.084;2023-07-02T04:57:43;13.13;;;4.32;;
66485;SDS011;53303;47.476;8.084;2023-07-02T05:00:09;8.88;;;3.85;;
66485;SDS011;53303;47.476;8.084;2023-07-02T05:02:38;10.18;;;4.03;;
66485;SDS011;53303;47.476;8.084;2023-07-02T05:05:04;10.00;;;4.50;;
66485;SDS011;53303;47.476;8.084;2023-07-02T05:07:29;10.85;;;4.28;;
66485;SDS011;53303;47.476;8.084;2023-07-02T05:09:58;11.52;;;4.70;;
66485;SDS011;53303;47.476;8.084;2023-07-02T05:12:23;10.88;;;4.18;;
66485;SDS011;53303;47.476;8.084;2023-07-02T05:14:51;11.77;;;4.65;;
66485;SDS011;53303;47.476;8.084;2023-07-02T05:17:16;12.80;;;5.10;;
66485;SDS011;53303;47.476;8.084;2023-07-02T05:19:42;12.27;;;5.07;;
66485;SDS011;53303;47.476;8.084;2023-07-02T05:22:08;10.80;;;4.40;;
66485;SDS011;53303;47.476;8.084;2023-07-02T05:24:34;13.55;;;4.70;;
66485;SDS011;53303;47.476;8.084;2023-07-02T05:26:59;10.23;;;4.75;;
66485;SDS011;53303;47.476;8.084;2023-07-02T05:29:27;12.40;;;5.32;;
66485;SDS011;53303;47.476;8.084;2023-07-02T05:31:53;12.05;;;5.72;;
66485;SDS011;53303;47.476;8.084;2023-07-02T05:34:18;11.10;;;5.13;;
66485;SDS011;53303;47.476;8.084;2023-07-02T05:36:43;13.40;;;5.63;;
66485;SDS011;53303;47.476;8.084;2023-07-02T05:39:11;14.57;;;5.18;;
66485;SDS011;53303;47.476;8.084;2023-07-02T05:41:37;11.75;;;5.78;;
66485;SDS011;53303;47.476;8.084;2023-07-02T05:44:02;12.10;;;5.85;;
66485;SDS011;53303;47.476;8.084;2023-07-02T05:46:28;11.80;;;6.35;;
66485;SDS011;53303;47.476;8.084;2023-07-02T05:48:53;15.00;;;6.82;;
66485;SDS011;53303;47.476;8.084;2023-07-02T05:51:22;12.98;;;6.22;;
66485;SDS011;53303;47.476;8.084;2023-07-02T05:53:48;19.48;;;7.22;;
66485;SDS011;53303;47.476;8.084;2023-07-02T05:56:14;16.30;;;7.32;;
66485;SDS011;53303;47.476;8.084;2023-07-02T05:58:42;13.38;;;6.85;;
66485;SDS011;53303;47.476;8.084;2023-07-02T06:01:08;13.35;;;7.03;;
66485;SDS011;53303;47.476;8.084;2023-07-02T06:03:33;17.70;;;6.88;;
66485;SDS011;53303;47.476;8.084;2023-07-02T06:05:58;14.65;;;7.40;;
66485;SDS011;53303;47.476;8.084;2023-07-02T06:08:24;12.35;;;6.32;;
66485;SDS011;53303;47.476;8.084;2023-07-02T06:10:50;14.40;;;7.18;;
66485;SDS011;53303;47.476;8.084;2023-07-02T06:13:15;16.73;;;7.22;;
66485;SDS011;53303;47.476;8.084;2023-07-02T06:15:41;15.32;;;7.50;;
66485;SDS011;53303;47.476;8.084;2023-07-02T06:18:07;16.73;;;6.97;;
66485;SDS011;53303;47.476;8.084;2023-07-02T06:20:32;14.40;;;8.38;;
66485;SDS011;53303;47.476;8.084;2023-07-02T06:22:58;15.38;;;8.15;;
66485;SDS011;53303;47.476;8.084;2023-07-02T06:25:29;14.63;;;7.32;;
66485;SDS011;53303;47.476;8.084;2023-07-02T06:27:54;10.65;;;6.28;;
66485;SDS011;53303;47.476;8.084;2023-07-02T06:30:23;13.57;;;6.63;;
66485;SDS011;53303;47.476;8.084;2023-07-02T06:32:49;14.32;;;8.02;;
66485;SDS011;53303;47.476;8.084;2023-07-02T06:35:14;13.85;;;7.10;;
66485;SDS011;53303;47.476;8.084;2023-07-02T06:37:39;16.58;;;7.95;;
66485;SDS011;53303;47.476;8.084;2023-07-02T06:40:05;21.52;;;8.70;;
66485;SDS011;53303;47.476;8.084;2023-07-02T06:42:31;16.02;;;8.48;;
66485;SDS011;53303;47.476;8.084;2023-07-02T06:44:58;17.42;;;8.00;;
66485;SDS011;53303;47.476;8.084;2023-07-02T06:47:26;19.50;;;8.52;;
66485;SDS011;53303;47.476;8.084;2023-07-02T06:49:52;24.58;;;7.85;;
66485;SDS011;53303;47.476;8.084;2023-07-02T06:52:18;18.60;;;8.05;;
66485;SDS011;53303;47.476;8.084;2023-07-02T06:54:43;18.48;;;9.30;;
66485;SDS011;53303;47.476;8.084;2023-07-02T06:57:09;18.83;;;9.38;;
66485;SDS011;53303;47.476;8.084;2023-07-02T06:59:34;19.45;;;8.35;;
66485;SDS011;53303;47.476;8.084;2023-07-02T07:02:01;19.10;;;8.93;;
66485;SDS011;53303;47.476;8.084;2023-07-02T07:04:27;16.40;;;7.80;;
66485;SDS011;53303;47.476;8.084;2023-07-02T07:06:53;21.38;;;9.00;;
66485;SDS011;53303;47.476;8.084;2023-07-02T07:09:20;21.95;;;8.18;;
66485;SDS011;53303;47.476;8.084;2023-07-02T07:11:46;17.77;;;8.30;;
66485;SDS011;53303;47.476;8.084;2023-07-02T07:14:11;17.63;;;9.23;;
66485;SDS011;53303;47.476;8.084;2023-07-02T07:16:37;18.80;;;9.73;;
66485;SDS011;53303;47.476;8.084;2023-07-02T07:19:02;18.35;;;9.02;;
66485;SDS011;53303;47.476;8.084;2023-07-02T07:21:28;16.33;;;8.65;;
66485;SDS011;53303;47.476;8.084;2023-07-02T07:23:53;15.95;;;8.30;;
66485;SDS011;53303;47.476;8.084;2023-07-02T07:26:19;18.05;;;9.52;;
66485;SDS011;53303;47.476;8.084;2023-07-02T07:28:44;18.55;;;9.65;;
66485;SDS011;53303;47.476;8.084;2023-07-02T07:31:10;16.58;;;8.65;;
66485;SDS011;53303;47.476;8.084;2023-07-02T07:33:35;17.02;;;7.72;;
66485;SDS011;53303;47.476;8.084;2023-07-02T07:36:04;17.08;;;8.98;;
66485;SDS011;53303;47.476;8.084;2023-07-02T07:38:29;17.27;;;8.93;;
66485;SDS011;53303;47.476;8.084;2023-07-02T07:40:55;17.58;;;9.05;;
66485;SDS011;53303;47.476;8.084;2023-07-02T07:43:20;19.08;;;9.60;;
66485;SDS011;53303;47.476;8.084;2023-07-02T07:45:45;17.30;;;8.82;;
66485;SDS011;53303;47.476;8.084;2023-07-02T07:48:11;16.27;;;9.20;;
66485;SDS011;53303;47.476;8.084;2023-07-02T07:50:36;15.50;;;8.25;;
66485;SDS011;53303;47.476;8.084;2023-07-02T07:53:02;15.65;;;8.43;;
66485;SDS011;53303;47.476;8.084;2023-07-02T07:55:28;16.45;;;8.85;;
66485;SDS011;53303;47.476;8.084;2023-07-02T07:57:53;15.77;;;8.18;;
66485;SDS011;53303;47.476;8.084;2023-07-02T08:00:21;17.60;;;8.60;;
66485;SDS011;53303;47.476;8.084;2023-07-02T08:02:46;16.77;;;8.65;;
66485;SDS011;53303;47.476;8.084;2023-07-02T08:05:12;15.90;;;8.52;;
66485;SDS011;53303;47.476;8.084;2023-07-02T08:07:38;18.52;;;9.48;;
66485;SDS011;53303;47.476;8.084;2023-07-02T08:10:05;15.68;;;8.48;;
66485;SDS011;53303;47.476;8.084;2023-07-02T08:12:32;17.58;;;9.55;;
66485;SDS011;53303;47.476;8.084;2023-07-02T08:14:58;15.90;;;8.95;;
66485;SDS011;53303;47.476;8.084;2023-07-02T08:17:23;18.77;;;10.18;;
66485;SDS011;53303;47.476;8.084;2023-07-02T08:19:49;17.13;;;9.15;;
66485;SDS011;53303;47.476;8.084;2023-07-02T08:22:14;17.92;;;8.88;;
66485;SDS011;53303;47.476;8.084;2023-07-02T08:24:39;17.65;;;9.45;;
66485;SDS011;53303;47.476;8.084;2023-07-02T08:27:07;15.88;;;9.57;;
66485;SDS011;53303;47.476;8.084;2023-07-02T08:29:33;16.98;;;9.52;;
66485;SDS011;53303;47.476;8.084;2023-07-02T08:32:01;18.45;;;9.52;;
66485;SDS011;53303;47.476;8.084;2023-07-02T08:34:26;15.65;;;9.35;;
66485;SDS011;53303;47.476;8.084;2023-07-02T08:36:54;17.63;;;9.93;;
66485;SDS011;53303;47.476;8.084;2023-07-02T08:39:19;18.27;;;9.40;;
66485;SDS011;53303;47.476;8.084;2023-07-02T08:41:45;19.48;;;9.45;;
66485;SDS011;53303;47.476;8.084;2023-07-02T08:44:12;18.95;;;10.60;;
66485;SDS011;53303;47.476;8.084;2023-07-02T08:46:40;18.20;;;10.13;;
66485;SDS011;53303;47.476;8.084;2023-07-02T08:49:07;18.65;;;9.75;;
66485;SDS011;53303;47.476;8.084;2023-07-02T08:51:35;20.08;;;10.35;;
66485;SDS011;53303;47.476;8.084;2023-07-02T08:54:02;18.42;;;8.82;;
66485;SDS011;53303;47.476;8.084;2023-07-02T08:56:30;17.55;;;10.00;;
66485;SDS011;53303;47.476;8.084;2023-07-02T08:58:56;21.17;;;10.90;;
66485;SDS011;53303;47.476;8.084;2023-07-02T09:01:22;19.90;;;9.55;;
66485;SDS011;53303;47.476;8.084;2023-07-02T09:03:48;17.60;;;9.23;;
66485;SDS011;53303;47.476;8.084;2023-07-02T09:06:16;19.52;;;10.57;;
66485;SDS011;53303;47.476;8.084;2023-07-02T09:08:43;19.60;;;9.55;;
66485;SDS011;53303;47.476;8.084;2023-07-02T09:11:12;16.95;;;9.77;;
66485;SDS011;53303;47.476;8.084;2023-07-02T09:13:48;21.45;;;10.00;;
66485;SDS011;53303;47.476;8.084;2023-07-02T09:19:01;20.08;;;11.07;;
66485;SDS011;53303;47.476;8.084;2023-07-02T09:21:44;19.17;;;9.85;;
66485;SDS011;53303;47.476;8.084;2023-07-02T09:24:21;18.77;;;10.38;;
66485;SDS011;53303;47.476;8.084;2023-07-02T09:26:54;19.92;;;10.77;;
66485;SDS011;53303;47.476;8.084;2023-07-02T09:29:22;19.00;;;9.77;;
66485;SDS011;53303;47.476;8.084;2023-07-02T09:31:55;19.25;;;10.18;;
66485;SDS011;53303;47.476;8.084;2023-07-02T09:34:30;18.67;;;9.95;;
66485;SDS011;53303;47.476;8.084;2023-07-02T09:36:57;17.08;;;9.52;;
66485;SDS011;53303;47.476;8.084;2023-07-02T09:39:27;19.60;;;10.20;;
66485;SDS011;53303;47.476;8.084;2023-07-02T09:41:54;19.05;;;9.70;;
66485;SDS011;53303;47.476;8.084;2023-07-02T09:44:22;18.75;;;9.93;;
66485;SDS011;53303;47.476;8.084;2023-07-02T09:46:55;17.65;;;8.93;;
66485;SDS011;53303;47.476;8.084;2023-07-02T09:49:27;17.73;;;8.65;;
66485;SDS011;53303;47.476;8.084;2023-07-02T09:52:02;18.83;;;10.02;;
66485;SDS011;53303;47.476;8.084;2023-07-02T09:54:32;16.85;;;10.02;;
66485;SDS011;53303;47.476;8.084;2023-07-02T09:56:58;17.13;;;9.65;;
66485;SDS011;53303;47.476;8.084;2023-07-02T09:59:24;17.60;;;10.18;;
66485;SDS011;53303;47.476;8.084;2023-07-02T10:01:52;16.70;;;9.23;;
66485;SDS011;53303;47.476;8.084;2023-07-02T10:04:18;17.05;;;8.93;;
66485;SDS011;53303;47.476;8.084;2023-07-02T10:06:46;16.48;;;8.43;;
66485;SDS011;53303;47.476;8.084;2023-07-02T10:09:14;16.75;;;8.93;;
66485;SDS011;53303;47.476;8.084;2023-07-02T10:11:43;18.00;;;9.52;;
66485;SDS011;53303;47.476;8.084;2023-07-02T10:14:09;17.92;;;9.73;;
66485;SDS011;53303;47.476;8.084;2023-07-02T10:16:47;17.02;;;9.80;;
66485;SDS011;53303;47.476;8.084;2023-07-02T10:19:17;16.02;;;8.80;;
66485;SDS011;53303;47.476;8.084;2023-07-02T10:21:42;15.77;;;8.52;;
66485;SDS011;53303;47.476;8.084;2023-07-02T10:24:14;15.65;;;8.70;;
66485;SDS011;53303;47.476;8.084;2023-07-02T10:26:57;16.88;;;8.38;;
66485;SDS011;53303;47.476;8.084;2023-07-02T10:29:25;17.95;;;8.43;;
66485;SDS011;53303;47.476;8.084;2023-07-02T10:31:52;18.20;;;9.75;;
66485;SDS011;53303;47.476;8.084;2023-07-02T10:34:32;20.80;;;9.43;;
66485;SDS011;53303;47.476;8.084;2023-07-02T10:37:02;15.35;;;8.23;;
66485;SDS011;53303;47.476;8.084;2023-07-02T10:39:31;17.17;;;8.95;;
66485;SDS011;53303;47.476;8.084;2023-07-02T10:42:06;16.38;;;8.40;;
66485;SDS011;53303;47.476;8.084;2023-07-02T10:44:34;18.20;;;8.90;;
66485;SDS011;53303;47.476;8.084;2023-07-02T10:47:00;17.80;;;8.88;;
66485;SDS011;53303;47.476;8.084;2023-07-02T10:49:32;17.13;;;9.48;;
66485;SDS011;53303;47.476;8.084;2023-07-02T10:52:02;20.02;;;9.70;;
66485;SDS011;53303;47.476;8.084;2023-07-02T10:54:46;18.00;;;9.32;;
66485;SDS011;53303;47.476;8.084;2023-07-02T10:57:13;20.30;;;9.27;;
66485;SDS011;53303;47.476;8.084;2023-07-02T10:59:45;16.85;;;9.25;;
66485;SDS011;53303;47.476;8.084;2023-07-02T11:02:10;20.25;;;9.88;;
66485;SDS011;53303;47.476;8.084;2023-07-02T11:04:36;18.92;;;8.35;;
66485;SDS011;53303;47.476;8.084;2023-07-02T11:07:02;17.77;;;9.88;;
66485;SDS011;53303;47.476;8.084;2023-07-02T11:09:31;17.30;;;9.73;;
66485;SDS011;53303;47.476;8.084;2023-07-02T11:11:57;18.30;;;8.93;;
66485;SDS011;53303;47.476;8.084;2023-07-02T11:16:54;17.10;;;8.85;;
66485;SDS011;53303;47.476;8.084;2023-07-02T11:19:25;21.10;;;9.35;;
66485;SDS011;53303;47.476;8.084;2023-07-02T11:21:54;20.65;;;9.85;;
66485;SDS011;53303;47.476;8.084;2023-07-02T11:24:41;18.67;;;9.18;;
66485;SDS011;53303;47.476;8.084;2023-07-02T11:27:07;19.85;;;8.95;;
66485;SDS011;53303;47.476;8.084;2023-07-02T11:29:33;19.10;;;9.68;;
66485;SDS011;53303;47.476;8.084;2023-07-02T11:32:10;19.92;;;10.02;;
66485;SDS011;53303;47.476;8.084;2023-07-02T11:34:39;18.23;;;9.07;;
66485;SDS011;53303;47.476;8.084;2023-07-02T11:37:05;18.67;;;9.15;;
66485;SDS011;53303;47.476;8.084;2023-07-02T11:39:31;15.65;;;8.65;;
66485;SDS011;53303;47.476;8.084;2023-07-02T11:42:01;17.42;;;8.77;;
66485;SDS011;53303;47.476;8.084;2023-07-02T11:44:27;17.60;;;9.23;;
66485;SDS011;53303;47.476;8.084;2023-07-02T11:46:52;17.05;;;9.88;;
66485;SDS011;53303;47.476;8.084;2023-07-02T11:49:18;16.60;;;8.73;;
66485;SDS011;53303;47.476;8.084;2023-07-02T11:51:43;17.83;;;9.20;;
66485;SDS011;53303;47.476;8.084;2023-07-02T11:54:13;16.05;;;8.82;;
66485;SDS011;53303;47.476;8.084;2023-07-02T11:56:40;17.90;;;9.43;;
66485;SDS011;53303;47.476;8.084;2023-07-02T11:59:07;18.58;;;10.40;;
66485;SDS011;53303;47.476;8.084;2023-07-02T12:01:33;18.85;;;10.48;;
66485;SDS011;53303;47.476;8.084;2023-07-02T12:03:59;17.45;;;8.45;;
66485;SDS011;53303;47.476;8.084;2023-07-02T12:06:24;20.98;;;9.55;;
66485;SDS011;53303;47.476;8.084;2023-07-02T12:08:50;20.63;;;10.30;;
66485;SDS011;53303;47.476;8.084;2023-07-02T12:11:15;23.27;;;9.57;;
66485;SDS011;53303;47.476;8.084;2023-07-02T12:13:41;20.70;;;9.00;;
66485;SDS011;53303;47.476;8.084;2023-07-02T12:16:06;17.60;;;8.82;;
66485;SDS011;53303;47.476;8.084;2023-07-02T12:18:32;20.85;;;9.45;;
66485;SDS011;53303;47.476;8.084;2023-07-02T12:20:59;16.40;;;8.85;;
66485;SDS011;53303;47.476;8.084;2023-07-02T12:23:28;17.15;;;9.07;;
66485;SDS011;53303;47.476;8.084;2023-07-02T12:25:53;19.67;;;8.57;;
66485;SDS011;53303;47.476;8.084;2023-07-02T12:28:21;21.80;;;9.25;;
66485;SDS011;53303;47.476;8.084;2023-07-02T12:30:46;15.82;;;9.45;;
66485;SDS011;53303;47.476;8.084;2023-07-02T12:33:12;19.38;;;10.15;;
66485;SDS011;53303;47.476;8.084;2023-07-02T12:35:38;19.02;;;9.93;;
66485;SDS011;53303;47.476;8.084;2023-07-02T12:38:05;22.38;;;9.30;;
66485;SDS011;53303;47.476;8.084;2023-07-02T12:40:33;17.67;;;8.98;;
66485;SDS011;53303;47.476;8.084;2023-07-02T12:42:59;19.77;;;9.98;;
66485;SDS011;53303;47.476;8.084;2023-07-02T12:45:24;21.35;;;10.15;;
66485;SDS011;53303;47.476;8.084;2023-07-02T12:47:50;17.77;;;9.25;;
66485;SDS011;53303;47.476;8.084;2023-07-02T12:50:15;17.60;;;10.15;;
66485;SDS011;53303;47.476;8.084;2023-07-02T12:52:40;18.35;;;9.32;;
66485;SDS011;53303;47.476;8.084;2023-07-02T12:55:08;18.10;;;9.40;;
66485;SDS011;53303;47.476;8.084;2023-07-02T12:57:36;17.38;;;9.75;;
66485;SDS011;53303;47.476;8.084;2023-07-02T13:00:01;17.35;;;9.77;;
66485;SDS011;53303;47.476;8.084;2023-07-02T13:02:30;18.48;;;8.90;;
66485;SDS011;53303;47.476;8.084;2023-07-02T13:04:58;18.38;;;9.85;;
66485;SDS011;53303;47.476;8.084;2023-07-02T13:07:23;18.00;;;9.93;;
66485;SDS011;53303;47.476;8.084;2023-07-02T13:09:50;18.25;;;9.57;;
66485;SDS011;53303;47.476;8.084;2023-07-02T13:12:18;16.85;;;8.63;;
66485;SDS011;53303;47.476;8.084;2023-07-02T13:14:45;14.57;;;8.23;;
66485;SDS011;53303;47.476;8.084;2023-07-02T13:17:11;17.98;;;9.85;;
66485;SDS011;53303;47.476;8.084;2023-07-02T13:19:38;19.48;;;9.60;;
66485;SDS011;53303;47.476;8.084;2023-07-02T13:22:04;14.55;;;8.25;;
66485;SDS011;53303;47.476;8.084;2023-07-02T13:24:33;16.17;;;9.05;;
66485;SDS011;53303;47.476;8.084;2023-07-02T13:27:02;14.70;;;8.45;;
66485;SDS011;53303;47.476;8.084;2023-07-02T13:29:33;15.43;;;8.32;;
66485;SDS011;53303;47.476;8.084;2023-07-02T13:31:59;15.40;;;8.20;;
66485;SDS011;53303;47.476;8.084;2023-07-02T13:34:24;17.00;;;9.65;;
66485;SDS011;53303;47.476;8.084;2023-07-02T13:36:52;15.80;;;8.40;;
66485;SDS011;53303;47.476;8.084;2023-07-02T13:39:17;15.43;;;8.18;;
66485;SDS011;53303;47.476;8.084;2023-07-02T13:41:43;14.75;;;8.93;;
66485;SDS011;53303;47.476;8.084;2023-07-02T13:44:14;18.60;;;8.82;;
66485;SDS011;53303;47.476;8.084;2023-07-02T13:46:39;15.35;;;9.32;;
66485;SDS011;53303;47.476;8.084;2023-07-02T13:49:05;15.82;;;8.27;;
66485;SDS011;53303;47.476;8.084;2023-07-02T13:51:30;18.15;;;9.75;;
66485;SDS011;53303;47.476;8.084;2023-07-02T13:53:58;14.98;;;8.27;;
66485;SDS011;53303;47.476;8.084;2023-07-02T13:56:26;18.35;;;9.10;;
66485;SDS011;53303;47.476;8.084;2023-07-02T14:01:22;14.63;;;7.72;;
66485;SDS011;53303;47.476;8.084;2023-07-02T14:03:48;15.15;;;8.95;;
66485;SDS011;53303;47.476;8.084;2023-07-02T14:06:14;14.82;;;7.68;;
66485;SDS011;53303;47.476;8.084;2023-07-02T14:08:40;18.83;;;8.57;;
66485;SDS011;53303;47.476;8.084;2023-07-02T14:11:06;14.48;;;8.27;;
66485;SDS011;53303;47.476;8.084;2023-07-02T14:13:32;14.57;;;7.35;;
66485;SDS011;53303;47.476;8.084;2023-07-02T14:16:00;16.80;;;8.45;;
66485;SDS011;53303;47.476;8.084;2023-07-02T14:18:26;14.88;;;7.15;;
66485;SDS011;53303;47.476;8.084;2023-07-02T14:20:51;15.75;;;7.10;;
66485;SDS011;53303;47.476;8.084;2023-07-02T14:23:17;20.55;;;8.02;;
66485;SDS011;53303;47.476;8.084;2023-07-02T14:25:42;15.35;;;7.50;;
66485;SDS011;53303;47.476;8.084;2023-07-02T14:28:08;17.95;;;8.10;;
66485;SDS011;53303;47.476;8.084;2023-07-02T14:30:37;22.70;;;7.68;;
66485;SDS011;53303;47.476;8.084;2023-07-02T14:33:07;15.15;;;7.00;;
66485;SDS011;53303;47.476;8.084;2023-07-02T14:35:33;20.75;;;7.78;;
66485;SDS011;53303;47.476;8.084;2023-07-02T14:38:00;44.90;;;11.43;;
66485;SDS011;53303;47.476;8.084;2023-07-02T14:40:31;85.25;;;14.57;;
66485;SDS011;53303;47.476;8.084;2023-07-02T14:42:56;106.75;;;16.25;;
66485;SDS011;53303;47.476;8.084;2023-07-02T14:45:22;154.27;;;18.10;;